Time;durP1;ratioP1;P1;durP2;ratioP2;P2;SDS_P1;SDS_P2;PMS_P1;PMS_P2;Temp;Humidity;BMP_temperature;BMP_pressure;BME280_temperature;BME280_humidity;BME280_pressure;Samples;Min_cycle;Max_cycle;Signal;HPM_P1;HPM_P2
2022/03/02 00:02:08;;;;;;;24.10;7.78;;;;;;;1.81;44.08;100644.34;5134261;27;20043;-44
2022/03/02 00:04:34;;;;;;;28.58;8.38;;;;;;;1.81;43.88;100639.22;5133748;27;20583;-45
2022/03/02 00:07:00;;;;;;;21.02;6.60;;;;;;;1.79;43.72;100640.88;5134605;27;20472;-45
2022/03/02 00:09:26;;;;;;;16.13;6.40;;;;;;;1.58;43.65;100638.81;5133830;27;20154;-45
2022/03/02 00:11:52;;;;;;;20.05;5.47;;;;;;;1.42;43.94;100636.81;5134034;27;20122;-47
2022/03/02 00:14:18;;;;;;;17.05;5.65;;;;;;;1.32;43.71;100634.06;5113405;27;20506;-45
2022/03/02 00:16:44;;;;;;;19.00;6.05;;;;;;;1.34;43.76;100637.53;5134080;27;20039;-44
2022/03/02 00:19:09;;;;;;;13.98;5.60;;;;;;;1.31;43.71;100634.94;5115852;27;20141;-44
2022/03/02 00:21:35;;;;;;;13.20;5.35;;;;;;;1.22;44.27;100626.22;5132259;27;20577;-45
2022/03/02 00:24:03;;;;;;;18.70;5.88;;;;;;;1.06;44.30;100605.44;5115594;27;20129;-44
2022/03/02 00:26:31;;;;;;;14.85;5.68;;;;;;;1.23;44.13;100614.28;5133912;27;20042;-45
2022/03/02 00:28:57;;;;;;;15.85;5.80;;;;;;;1.42;44.15;100635.97;5133799;27;20053;-44
2022/03/02 00:31:22;;;;;;;15.68;5.65;;;;;;;1.48;43.86;100625.81;5115185;27;20129;-47
2022/03/02 00:33:48;;;;;;;13.40;6.13;;;;;;;1.50;44.10;100624.16;5133566;27;20479;-44
2022/03/02 00:36:14;;;;;;;20.15;5.90;;;;;;;1.51;43.72;100616.50;5133084;27;20035;-44
2022/03/02 00:38:40;;;;;;;14.23;4.65;;;;;;;1.52;43.92;100619.91;5115422;27;20035;-45
2022/03/02 00:41:06;;;;;;;12.25;5.28;;;;;;;1.53;43.59;100627.63;5132930;27;20042;-44
2022/03/02 00:43:32;;;;;;;13.07;5.38;;;;;;;1.56;43.41;100622.59;5132956;27;20038;-45
2022/03/02 00:45:58;;;;;;;17.10;5.35;;;;;;;1.51;44.01;100613.94;5098184;27;20046;-43
2022/03/02 00:48:24;;;;;;;12.95;4.65;;;;;;;1.49;43.62;100609.63;5133105;27;20034;-44
2022/03/02 00:50:50;;;;;;;16.98;4.72;;;;;;;1.44;43.24;100607.00;5114945;27;20431;-46
2022/03/02 00:53:16;;;;;;;13.60;4.72;;;;;;;1.38;43.56;100612.00;5133371;27;20038;-45
2022/03/02 00:55:42;;;;;;;17.20;4.03;;;;;;;1.34;43.60;100612.78;5133077;27;20534;-45
2022/03/02 00:58:08;;;;;;;16.30;4.20;;;;;;;1.27;43.40;100593.88;5114817;27;20130;-45
2022/03/02 01:00:33;;;;;;;10.52;4.13;;;;;;;1.43;43.16;100604.38;5133088;27;20080;-44
2022/03/02 01:02:59;;;;;;;16.08;4.20;;;;;;;1.34;43.84;100610.22;5132649;27;20046;-45
2022/03/02 01:05:25;;;;;;;14.25;3.92;;;;;;;1.32;43.92;100611.88;5097306;27;20103;-46
2022/03/02 01:07:51;;;;;;;15.32;4.40;;;;;;;1.29;43.63;100611.84;5113563;27;20608;-45
2022/03/02 01:10:17;;;;;;;11.52;3.85;;;;;;;1.10;43.53;100582.47;5133129;27;20417;-44
2022/03/02 01:12:43;;;;;;;15.20;4.03;;;;;;;1.12;43.82;100608.97;5114450;27;20053;-44
2022/03/02 01:15:10;;;;;;;12.48;3.90;;;;;;;1.13;43.45;100602.16;5093881;27;20051;-44
2022/03/02 01:17:37;;;;;;;11.73;3.83;;;;;;;1.05;43.41;100583.22;5132788;27;20038;-47
2022/03/02 01:20:06;;;;;;;11.65;3.90;;;;;;;1.21;43.78;100590.34;5132736;27;20063;-43
2022/03/02 01:22:32;;;;;;;10.90;3.83;;;;;;;1.19;43.53;100592.91;5132744;27;20072;-43
2022/03/02 01:24:58;;;;;;;11.77;3.85;;;;;;;1.08;43.42;100591.84;5132416;27;20035;-47
2022/03/02 01:27:24;;;;;;;13.18;4.18;;;;;;;1.08;43.54;100588.41;5114118;27;20518;-44
2022/03/02 01:29:53;;;;;;;12.60;4.07;;;;;;;1.07;43.67;100582.41;5133008;27;20039;-45
2022/03/02 01:32:19;;;;;;;10.10;3.83;;;;;;;0.95;44.20;100583.88;5113509;27;20046;-45
2022/03/02 01:34:45;;;;;;;13.10;4.43;;;;;;;0.77;44.49;100582.72;5132560;27;20043;-46
2022/03/02 01:37:11;;;;;;;13.63;4.43;;;;;;;0.77;44.86;100585.28;5132358;27;20043;-45
2022/03/02 01:39:37;;;;;;;10.52;4.32;;;;;;;0.84;44.66;100587.09;5113727;27;20039;-44
2022/03/02 01:42:05;;;;;;;17.63;3.85;;;;;;;0.65;44.70;100582.47;5132311;27;20047;-43
2022/03/02 01:44:33;;;;;;;11.57;3.92;;;;;;;0.49;44.56;100569.34;5132260;27;20077;-45
2022/03/02 01:46:59;;;;;;;14.35;4.35;;;;;;;0.41;44.77;100562.38;5132101;27;20058;-45
2022/03/02 01:49:24;;;;;;;17.00;4.80;;;;;;;0.46;45.01;100572.72;5113598;27;20510;-45
2022/03/02 01:51:50;;;;;;;10.60;4.40;;;;;;;0.43;44.89;100534.25;5132122;27;20134;-45
2022/03/02 01:54:16;;;;;;;9.75;3.88;;;;;;;0.66;44.58;100560.31;5079285;27;20066;-45
2022/03/02 01:56:42;;;;;;;10.45;4.43;;;;;;;0.66;44.73;100561.16;5114165;27;20100;-44
2022/03/02 01:59:08;;;;;;;13.40;3.58;;;;;;;0.73;44.47;100563.00;5131714;27;20422;-44
2022/03/02 02:01:34;;;;;;;11.23;3.72;;;;;;;0.68;44.53;100558.66;5113710;27;20039;-47
2022/03/02 02:04:01;;;;;;;10.80;3.63;;;;;;;0.63;44.56;100550.03;5112658;27;20457;-45
2022/03/02 02:06:27;;;;;;;10.18;3.80;;;;;;;0.46;44.65;100515.56;5114036;27;20031;-45
2022/03/02 02:08:53;;;;;;;10.07;3.45;;;;;;;0.71;44.70;100548.47;5131840;27;20422;-45
2022/03/02 02:11:19;;;;;;;8.32;3.92;;;;;;;0.62;44.35;100541.47;5131455;27;20091;-44
2022/03/02 02:13:45;;;;;;;11.05;4.57;;;;;;;0.53;44.52;100532.75;5132058;27;20529;-44
2022/03/02 02:16:11;;;;;;;15.48;5.32;;;;;;;0.39;45.03;100527.38;5131796;27;20043;-44
2022/03/02 02:18:37;;;;;;;15.57;5.07;;;;;;;0.43;44.99;100544.50;5130719;27;20039;-45
2022/03/02 02:21:04;;;;;;;12.60;5.35;;;;;;;0.24;45.64;100535.59;5113446;27;20348;-43
2022/03/02 02:23:31;;;;;;;11.38;4.95;;;;;;;0.24;45.21;100545.81;5131433;27;20118;-43
2022/03/02 02:25:56;;;;;;;13.93;4.97;;;;;;;0.23;45.62;100540.66;5131487;27;20418;-46
2022/03/02 02:28:25;;;;;;;22.58;6.07;;;;;;;0.23;45.56;100540.66;5131341;27;20042;-44
2022/03/02 02:30:53;;;;;;;18.20;5.80;;;;;;;0.17;45.68;100541.41;5131529;27;20046;-46
2022/03/02 02:33:19;;;;;;;19.00;6.63;;;;;;;0.09;46.11;100534.41;5131199;27;20281;-45
2022/03/02 02:35:45;;;;;;;22.00;6.07;;;;;;;0.15;46.19;100532.00;5096361;28;20130;-46
2022/03/02 02:38:11;;;;;;;26.70;5.93;;;;;;;0.09;46.01;100534.41;5113172;27;20043;-44
2022/03/02 02:40:37;;;;;;;16.95;6.00;;;;;;;0.03;45.75;100531.72;5131169;27;20039;-46
2022/03/02 02:43:05;;;;;;;15.52;5.43;;;;;;;-0.01;46.21;100524.00;5130886;27;20047;-43
2022/03/02 02:45:31;;;;;;;12.60;5.63;;;;;;;0.05;46.18;100533.50;5112397;28;20035;-45
2022/03/02 02:47:58;;;;;;;17.88;5.63;;;;;;;0.18;45.92;100524.38;5112706;28;20100;-45
2022/03/02 02:50:32;;;;;;;18.38;4.65;;;;;;;0.27;45.85;100522.00;5130982;28;20066;-47
2022/03/02 02:53:01;;;;;;;15.98;4.18;;;;;;;0.22;46.15;100511.66;5131020;28;20482;-46
2022/03/02 02:55:28;;;;;;;16.98;5.00;;;;;;;0.01;46.29;100521.44;5117162;28;20039;-46
2022/03/02 02:57:55;;;;;;;10.90;4.65;;;;;;;-0.15;46.84;100516.84;5113069;28;20046;-44
2022/03/02 03:00:22;;;;;;;18.05;4.20;;;;;;;-0.17;46.78;100506.59;5112545;28;20458;-45
2022/03/02 03:02:50;;;;;;;12.02;5.15;;;;;;;0.00;46.78;100505.25;5110334;27;20498;-45
2022/03/02 03:05:18;;;;;;;11.38;4.32;;;;;;;-0.01;46.48;100505.25;5129592;28;20043;-44
2022/03/02 03:07:44;;;;;;;13.05;4.63;;;;;;;-0.14;46.43;100506.66;5113089;28;20042;-44
2022/03/02 03:10:11;;;;;;;11.05;4.50;;;;;;;-0.08;46.24;100504.25;5112615;28;20039;-44
2022/03/02 03:12:37;;;;;;;11.38;4.97;;;;;;;-0.12;46.27;100499.03;5112457;28;20046;-45
2022/03/02 03:15:05;;;;;;;12.55;4.63;;;;;;;-0.14;46.43;100501.53;5131256;28;20039;-44
2022/03/02 03:17:31;;;;;;;13.32;4.55;;;;;;;-0.19;46.32;100489.50;5131103;28;20035;-44
2022/03/02 03:19:56;;;;;;;16.15;4.90;;;;;;;-0.06;46.57;100496.59;5112215;28;20054;-45
2022/03/02 03:22:22;;;;;;;17.10;5.32;;;;;;;0.07;46.45;100503.69;5130998;28;20046;-44
2022/03/02 03:24:48;;;;;;;11.57;4.70;;;;;;;-0.03;46.46;100482.19;5131402;28;20113;-45
2022/03/02 03:27:14;;;;;;;14.07;5.80;;;;;;;0.10;46.38;100498.66;5130256;28;20221;-44
2022/03/02 03:29:39;;;;;;;14.68;5.00;;;;;;;0.06;46.23;100498.53;5131012;27;20092;-44
2022/03/02 03:32:06;;;;;;;12.65;4.97;;;;;;;0.03;46.24;100503.59;5123854;27;20528;-45
2022/03/02 03:34:32;;;;;;;11.02;4.65;;;;;;;-0.11;46.29;100477.75;5135134;27;20510;-46
2022/03/02 03:36:57;;;;;;;20.27;6.05;;;;;;;-0.16;46.59;100484.47;5115617;27;20104;-44
2022/03/02 03:39:23;;;;;;;15.02;5.65;;;;;;;-0.24;46.73;100491.94;5134242;27;20034;-44
2022/03/02 03:41:49;;;;;;;19.35;6.07;;;;;;;-0.31;47.12;100487.53;5134513;27;20073;-45
2022/03/02 03:44:15;;;;;;;18.73;6.50;;;;;;;-0.43;46.91;100480.47;5134586;27;20035;-44
2022/03/02 03:46:41;;;;;;;14.23;5.90;;;;;;;-0.42;47.16;100481.34;5116006;27;20034;-45
2022/03/02 03:49:06;;;;;;;19.23;6.32;;;;;;;-0.44;46.97;100475.31;5134538;27;20035;-44
2022/03/02 03:51:34;;;;;;;25.70;7.00;;;;;;;-0.44;47.13;100481.31;5134111;27;20080;-44
2022/03/02 03:53:59;;;;;;;16.15;5.65;;;;;;;-0.45;47.29;100476.16;5115985;27;20550;-45
2022/03/02 03:56:25;;;;;;;19.55;5.82;;;;;;;-0.42;47.24;100478.78;5134248;27;20134;-45
2022/03/02 03:58:51;;;;;;;15.48;5.25;;;;;;;-0.37;47.11;100484.88;5133765;27;20046;-46
2022/03/02 04:01:17;;;;;;;15.95;5.60;;;;;;;-0.47;47.00;100467.56;5133723;27;20129;-44
2022/03/02 04:03:43;;;;;;;19.17;6.35;;;;;;;-0.48;46.99;100484.63;5133872;27;20054;-45
2022/03/02 04:06:09;;;;;;;20.73;7.07;;;;;;;-0.63;47.27;100466.38;5134013;27;20084;-45
2022/03/02 04:08:35;;;;;;;25.15;7.45;;;;;;;-0.59;47.28;100474.97;5133883;27;20044;-45
2022/03/02 04:11:01;;;;;;;21.40;7.47;;;;;;;-0.61;47.29;100474.06;5132906;27;20418;-45
2022/03/02 04:13:27;;;;;;;22.38;7.78;;;;;;;-0.63;47.35;100486.78;5115662;27;20189;-46
2022/03/02 04:15:53;;;;;;;21.55;6.63;;;;;;;-0.58;47.44;100474.16;5133696;27;20149;-46
2022/03/02 04:18:19;;;;;;;21.08;6.10;;;;;;;-0.55;47.36;100476.78;5115998;27;20100;-45
2022/03/02 04:20:44;;;;;;;17.25;5.82;;;;;;;-0.66;47.43;100470.56;5133465;27;20460;-45
2022/03/02 04:23:10;;;;;;;12.20;5.10;;;;;;;-0.82;47.86;100471.88;5096700;27;20126;-48
2022/03/02 04:25:36;;;;;;;17.63;6.45;;;;;;;-0.88;47.82;100471.72;5115307;27;20031;-45
2022/03/02 04:28:03;;;;;;;9.20;4.30;;;;;;;-0.92;47.95;100475.03;5132221;27;20043;-46
2022/03/02 04:30:30;;;;;;;12.48;5.18;;;;;;;-0.92;48.16;100473.34;5133180;27;20273;-45
2022/03/02 04:32:58;;;;;;;14.07;5.60;;;;;;;-0.71;47.71;100469.59;5115565;27;20042;-45
2022/03/02 04:35:24;;;;;;;20.63;5.75;;;;;;;-0.55;47.54;100461.44;5134099;27;20039;-45
2022/03/02 04:37:50;;;;;;;14.95;5.78;;;;;;;-0.46;47.47;100462.50;5133435;27;20569;-44
2022/03/02 04:40:16;;;;;;;14.82;5.53;;;;;;;-0.54;47.45;100468.28;5132008;27;20410;-46
2022/03/02 04:42:43;;;;;;;15.93;5.13;;;;;;;-0.63;47.49;100461.25;5133270;27;20043;-45
2022/03/02 04:45:09;;;;;;;16.55;6.13;;;;;;;-0.54;47.57;100456.38;5133365;27;20211;-45
2022/03/02 04:47:35;;;;;;;17.33;5.10;;;;;;;-0.33;47.19;100462.78;5133561;27;20117;-45
2022/03/02 04:50:02;;;;;;;15.38;5.63;;;;;;;-0.28;46.95;100468.88;5114508;27;20191;-45
2022/03/02 04:52:28;;;;;;;16.55;5.25;;;;;;;-0.35;47.22;100465.31;5126237;27;20038;-43
2022/03/02 04:55:27;;;;;;;15.40;6.15;;;;;;;-0.35;47.05;100467.84;5133210;27;20134;-46
2022/03/02 04:57:49;;;;;;;13.27;5.38;;;;;;;-0.33;46.79;100460.25;5111722;27;20429;-45
2022/03/02 05:00:23;;;;;;;18.52;5.57;;;;;;;-0.25;47.20;100458.69;5103916;27;20064;-47
2022/03/02 05:02:50;;;;;;;17.60;5.50;;;;;;;-0.11;46.80;100453.06;5140847;27;20045;-45
2022/03/02 05:05:17;;;;;;;21.40;5.88;;;;;;;0.10;46.54;100449.22;5137266;27;20039;-43
2022/03/02 05:07:43;;;;;;;19.15;6.45;;;;;;;0.16;46.68;100451.91;5137772;27;20165;-44
2022/03/02 05:10:10;;;;;;;21.20;5.93;;;;;;;0.19;46.53;100451.94;5113156;27;20178;-46
2022/03/02 05:12:37;;;;;;;14.88;5.65;;;;;;;0.22;46.89;100447.75;5138971;27;20123;-47
2022/03/02 05:15:04;;;;;;;17.00;5.50;;;;;;;0.36;46.67;100443.78;5094926;27;20049;-48
2022/03/02 05:17:30;;;;;;;18.45;6.97;;;;;;;0.35;46.12;100425.84;5131945;27;20073;-46
2022/03/02 05:19:56;;;;;;;17.27;5.40;;;;;;;0.58;46.22;100442.44;5137981;27;20105;-47
2022/03/02 05:22:21;;;;;;;15.63;5.38;;;;;;;0.72;45.63;100446.13;5124919;27;20046;-47
2022/03/02 05:24:47;;;;;;;16.98;4.97;;;;;;;0.53;45.75;100448.31;5141486;27;20046;-48
2022/03/02 05:27:13;;;;;;;16.45;5.47;;;;;;;0.48;45.66;100430.34;5142150;27;20050;-47
2022/03/02 05:29:39;;;;;;;17.67;5.28;;;;;;;0.80;45.13;100452.22;5105499;27;20047;-46
2022/03/02 05:32:05;;;;;;;20.67;5.53;;;;;;;0.96;45.13;100445.66;5123759;27;20087;-46
2022/03/02 05:34:31;;;;;;;15.75;5.57;;;;;;;1.16;44.86;100443.44;5137047;27;20122;-46
2022/03/02 05:36:57;;;;;;;16.55;5.45;;;;;;;1.34;44.55;100440.28;5142953;27;20138;-45
2022/03/02 05:39:23;;;;;;;15.05;5.63;;;;;;;1.34;44.27;100410.41;5152640;27;20443;-45
2022/03/02 05:41:52;;;;;;;13.05;5.43;;;;;;;1.75;43.74;100438.31;5134505;27;20358;-49
2022/03/02 05:44:18;;;;;;;16.00;5.40;;;;;;;2.05;43.53;100433.56;5132054;27;20031;-47
2022/03/02 05:46:43;;;;;;;15.55;6.28;;;;;;;2.42;42.51;100434.81;5132245;27;20583;-47
2022/03/02 05:49:09;;;;;;;18.95;6.22;;;;;;;3.11;41.62;100438.88;5132537;27;20043;-50
2022/03/02 05:51:35;;;;;;;22.85;7.15;;;;;;;3.97;40.06;100433.44;5131085;27;20055;-51
2022/03/02 05:54:03;;;;;;;17.75;5.80;;;;;;;4.84;38.11;100440.50;5130395;27;20042;-48
2022/03/02 05:56:30;;;;;;;18.55;6.80;;;;;;;5.65;36.99;100435.31;5113951;27;20548;-53
2022/03/02 05:58:56;;;;;;;17.95;6.70;;;;;;;6.40;35.96;100426.41;5126839;27;20043;-52
2022/03/02 06:01:22;;;;;;;19.95;5.72;;;;;;;7.20;34.61;100422.41;5130550;27;20498;-46
2022/03/02 06:03:49;;;;;;;22.58;6.95;;;;;;;7.90;33.49;100426.84;5132110;27;20051;-48
2022/03/02 06:06:15;;;;;;;17.55;6.65;;;;;;;8.33;31.90;100403.88;5130032;27;20464;-48
2022/03/02 06:08:42;;;;;;;20.05;6.38;;;;;;;9.01;31.72;100425.31;5096630;28;20035;-53
2022/03/02 06:11:08;;;;;;;20.77;7.55;;;;;;;9.55;30.26;100421.78;5096194;27;20138;-46
2022/03/02 06:13:34;;;;;;;29.10;7.93;;;;;;;9.42;29.24;100401.28;5132024;27;20053;-49
2022/03/02 06:16:01;;;;;;;18.52;7.50;;;;;;;9.94;29.53;100408.94;5131790;27;20043;-51
2022/03/02 06:18:27;;;;;;;30.13;9.20;;;;;;;10.37;28.30;100385.50;5130629;27;20046;-49
2022/03/02 06:20:59;;;;;;;27.33;10.23;;;;;;;11.00;27.80;100398.75;5119754;27;20044;-48
2022/03/02 06:23:25;;;;;;;27.27;10.15;;;;;;;11.48;27.30;100397.50;5112606;27;20179;-50
2022/03/02 06:25:51;;;;;;;30.85;9.32;;;;;;;11.91;26.32;100398.09;5112750;27;20509;-48
2022/03/02 06:28:17;;;;;;;20.15;9.25;;;;;;;12.14;26.47;100387.88;5130506;27;20050;-50
2022/03/02 06:30:43;;;;;;;35.50;8.07;;;;;;;12.74;25.99;100398.19;5130883;27;20039;-49
2022/03/02 06:33:09;;;;;;;19.42;7.38;;;;;;;13.29;25.36;100392.06;5094495;27;20042;-47
2022/03/02 06:35:35;;;;;;;22.92;8.68;;;;;;;13.72;24.54;100382.69;5131300;27;20039;-47
2022/03/02 06:38:00;;;;;;;32.67;8.15;;;;;;;14.28;24.10;100381.44;5113922;27;20035;-50
2022/03/02 06:40:30;;;;;;;27.80;9.82;;;;;;;14.89;23.67;100388.66;5107112;27;20061;-46
2022/03/02 06:43:06;;;;;;;34.88;8.85;;;;;;;15.41;22.90;100382.94;5127163;27;20046;-50
2022/03/02 06:45:48;;;;;;;24.50;10.10;;;;;;;15.94;22.10;100375.38;5084911;28;20067;-47
2022/03/02 06:48:22;;;;;;;22.60;7.97;;;;;;;16.27;22.14;100383.47;5130080;28;20157;-49
2022/03/02 06:50:53;;;;;;;22.90;8.57;;;;;;;16.34;21.90;100387.50;5110492;28;20047;-48
2022/03/02 06:53:33;;;;;;;26.80;8.07;;;;;;;16.63;21.61;100382.69;5113030;28;20051;-48
2022/03/02 06:56:10;;;;;;;25.95;8.23;;;;;;;17.01;20.98;100376.41;5112645;28;20047;-47
2022/03/02 06:58:41;;;;;;;28.40;8.18;;;;;;;17.27;20.53;100375.94;5096858;28;20042;-49
2022/03/02 07:01:11;;;;;;;28.05;8.80;;;;;;;17.25;20.46;100371.72;5129012;28;20084;-48
2022/03/02 07:03:47;;;;;;;20.98;7.68;;;;;;;17.45;20.24;100381.19;5124097;28;20043;-46
2022/03/02 07:06:14;;;;;;;21.83;7.68;;;;;;;17.63;19.93;100368.00;5114712;27;20043;-47
2022/03/02 07:08:44;;;;;;;17.40;7.72;;;;;;;17.76;19.69;100341.88;5117093;27;20035;-47
2022/03/02 07:11:10;;;;;;;27.20;8.02;;;;;;;18.24;19.35;100361.22;5116517;27;20082;-48
2022/03/02 07:13:36;;;;;;;26.52;8.35;;;;;;;18.58;19.13;100334.72;5134013;27;20050;-45
2022/03/02 07:16:01;;;;;;;24.17;7.68;;;;;;;18.86;18.72;100350.66;5135000;27;20039;-46
2022/03/02 07:18:28;;;;;;;28.83;8.50;;;;;;;18.92;18.61;100345.03;5116016;27;20524;-51
2022/03/02 07:20:56;;;;;;;21.90;8.00;;;;;;;19.25;18.23;100342.19;5134592;27;20115;-54
2022/03/02 07:23:24;;;;;;;28.77;8.07;;;;;;;19.63;17.85;100344.31;5134259;27;20043;-54
2022/03/02 07:25:49;;;;;;;16.20;7.25;;;;;;;19.75;17.71;100354.13;5133748;27;20046;-48
2022/03/02 07:28:15;;;;;;;21.73;7.05;;;;;;;20.05;17.74;100346.94;5115677;27;20411;-50
2022/03/02 07:30:43;;;;;;;17.00;6.13;;;;;;;20.47;17.27;100347.84;5134856;27;20035;-53
2022/03/02 07:33:10;;;;;;;17.13;5.38;;;;;;;20.15;17.26;100340.13;5134925;27;20111;-52
2022/03/02 07:35:37;;;;;;;20.05;6.75;;;;;;;20.37;17.25;100336.16;5115859;27;20035;-51
2022/03/02 07:38:07;;;;;;;16.95;7.68;;;;;;;20.43;16.50;100328.69;5133806;27;20063;-49
2022/03/02 07:40:35;;;;;;;19.88;7.20;;;;;;;19.83;17.07;100344.81;5132737;27;20111;-49
2022/03/02 07:43:01;;;;;;;16.52;7.00;;;;;;;19.97;17.04;100343.94;5130203;27;20134;-49
2022/03/02 07:45:27;;;;;;;9.93;5.95;;;;;;;20.30;16.59;100348.91;5133424;27;20050;-50
2022/03/02 07:47:53;;;;;;;27.85;7.50;;;;;;;20.11;16.76;100329.88;5116300;27;20027;-51
2022/03/02 07:50:19;;;;;;;17.73;6.90;;;;;;;20.56;16.49;100344.63;5134526;27;20046;-49
2022/03/02 07:52:51;;;;;;;18.13;6.00;;;;;;;20.46;16.75;100338.22;5098987;27;20088;-49
2022/03/02 07:55:17;;;;;;;11.63;6.15;;;;;;;20.57;16.53;100333.94;5132914;27;20042;-51
2022/03/02 07:57:43;;;;;;;16.38;6.28;;;;;;;20.65;16.41;100333.44;5134759;27;20088;-51
2022/03/02 08:00:14;;;;;;;21.17;6.85;;;;;;;20.84;16.39;100328.63;5116252;27;20137;-48
2022/03/02 08:02:40;;;;;;;21.48;7.15;;;;;;;21.53;16.02;100328.31;5134629;27;20509;-47
2022/03/02 08:05:07;;;;;;;17.70;7.10;;;;;;;22.19;15.53;100336.94;5115967;27;20047;-46
2022/03/02 08:07:35;;;;;;;21.60;6.85;;;;;;;22.64;15.21;100322.97;5134450;27;20067;-48
2022/03/02 08:10:00;;;;;;;24.20;6.70;;;;;;;22.51;15.35;100311.56;5116054;27;20059;-48
2022/03/02 08:12:26;;;;;;;18.00;7.15;;;;;;;22.63;15.41;100309.84;5134307;27;20035;-51
2022/03/02 08:14:52;;;;;;;11.77;5.72;;;;;;;22.59;15.32;100308.38;5132868;27;20035;-49
2022/03/02 08:17:19;;;;;;;17.67;7.78;;;;;;;22.37;15.68;100309.09;5133346;27;20042;-47
2022/03/02 08:19:48;;;;;;;17.10;6.05;;;;;;;22.48;15.30;100306.50;5098280;27;20445;-46
2022/03/02 08:22:17;;;;;;;16.73;6.05;;;;;;;22.31;15.37;100278.59;5115557;27;20402;-48
2022/03/02 08:24:56;;;;;;;12.30;3.90;;;;;;;22.54;15.11;100295.47;5115471;27;20124;-49
2022/03/02 08:27:22;;;;;;;12.20;3.78;;;;;;;22.52;15.11;100289.41;5112353;27;20040;-50
2022/03/02 08:29:56;;;;;;;11.57;3.58;;;;;;;22.92;14.90;100284.69;5115391;27;20222;-48
2022/03/02 08:32:23;;;;;;;9.77;4.20;;;;;;;23.12;14.71;100281.34;5115676;27;20048;-52
2022/03/02 08:34:49;;;;;;;6.88;3.03;;;;;;;23.12;14.61;100280.50;5133793;27;20065;-49
2022/03/02 08:37:18;;;;;;;9.93;3.53;;;;;;;22.95;14.91;100275.63;5133171;27;20043;-51
2022/03/02 08:39:45;;;;;;;9.82;4.05;;;;;;;23.17;14.73;100267.72;5115718;27;20494;-48
2022/03/02 08:42:11;;;;;;;9.70;3.72;;;;;;;23.14;14.63;100268.78;5098009;27;20188;-52
2022/03/02 08:44:37;;;;;;;8.85;3.95;;;;;;;23.20;14.27;100254.22;5134013;27;20454;-51
2022/03/02 08:47:04;;;;;;;11.43;4.95;;;;;;;23.03;14.37;100252.84;5115058;27;20023;-50
2022/03/02 08:49:29;;;;;;;11.10;4.57;;;;;;;23.12;14.63;100246.88;5098536;27;20141;-51
2022/03/02 08:51:56;;;;;;;9.95;4.10;;;;;;;22.67;14.55;100248.50;5133191;27;20043;-51
2022/03/02 08:54:22;;;;;;;10.48;4.57;;;;;;;22.38;14.89;100228.66;5115022;27;20035;-48
2022/03/02 08:56:49;;;;;;;17.55;4.75;;;;;;;22.73;14.46;100247.25;5132856;27;20035;-46
2022/03/02 08:59:17;;;;;;;13.63;4.95;;;;;;;22.88;14.63;100237.28;5098239;27;20194;-49
2022/03/02 09:01:46;;;;;;;9.75;4.65;;;;;;;23.53;14.44;100232.19;5115196;27;20122;-49
2022/03/02 09:04:13;;;;;;;15.50;4.85;;;;;;;23.93;14.11;100237.78;5114683;27;20072;-53
2022/03/02 09:06:39;;;;;;;12.40;4.68;;;;;;;24.58;13.93;100232.41;5133550;27;20045;-49
2022/03/02 09:09:06;;;;;;;13.00;4.80;;;;;;;25.01;13.63;100223.50;5133256;27;20129;-47
2022/03/02 09:11:32;;;;;;;12.93;4.78;;;;;;;25.46;13.58;100229.31;5132851;27;20145;-49
2022/03/02 09:13:57;;;;;;;11.02;4.45;;;;;;;24.04;13.58;100229.81;5133106;27;20558;-51
2022/03/02 09:16:23;;;;;;;10.52;4.82;;;;;;;24.40;13.58;100218.84;5114808;27;20040;-51
2022/03/02 09:18:49;;;;;;;17.77;5.05;;;;;;;25.24;13.34;100209.88;5114068;27;20043;-48
2022/03/02 09:21:19;;;;;;;10.65;5.32;;;;;;;25.79;13.06;100222.88;5132225;27;20049;-53
2022/03/02 09:23:45;;;;;;;11.32;4.05;;;;;;;26.12;12.34;100218.00;5132894;27;20039;-51
2022/03/02 09:26:13;;;;;;;12.57;4.55;;;;;;;25.92;12.91;100205.63;5113632;27;20129;-47
2022/03/02 09:28:41;;;;;;;12.25;4.40;;;;;;;26.04;12.86;100193.03;5132145;27;20039;-48
2022/03/02 09:31:09;;;;;;;8.65;3.92;;;;;;;25.25;13.03;100200.94;5114626;27;20039;-50
2022/03/02 09:33:35;;;;;;;9.20;3.88;;;;;;;25.26;12.85;100205.28;5096819;27;20103;-51
2022/03/02 09:36:04;;;;;;;7.07;3.75;;;;;;;25.27;13.06;100196.31;5130921;27;20126;-51
2022/03/02 09:38:32;;;;;;;10.13;3.60;;;;;;;26.02;12.94;100197.66;5114037;27;20038;-47
2022/03/02 09:41:05;;;;;;;10.85;3.53;;;;;;;26.54;12.84;100199.09;5114464;27;20051;-51
2022/03/02 09:43:35;;;;;;;8.43;3.17;;;;;;;26.62;12.60;100182.38;5113896;27;20039;-48
2022/03/02 09:46:06;;;;;;;7.32;3.08;;;;;;;26.67;12.27;100190.81;5097021;27;20027;-50
2022/03/02 09:48:35;;;;;;;7.57;2.70;;;;;;;26.85;12.14;100189.09;5132573;27;20070;-48
2022/03/02 09:51:03;;;;;;;7.55;2.92;;;;;;;26.93;12.50;100182.06;5113971;27;20038;-52
2022/03/02 09:53:31;;;;;;;9.38;3.28;;;;;;;27.14;12.20;100181.84;5113610;27;20042;-48
2022/03/02 09:56:01;;;;;;;5.97;2.78;;;;;;;27.13;12.07;100179.31;5132290;27;20031;-48
2022/03/02 09:58:27;;;;;;;9.07;3.38;;;;;;;27.62;12.12;100175.47;5113615;27;20053;-47
2022/03/02 10:00:58;;;;;;;8.23;3.10;;;;;;;28.00;11.60;100185.88;5132418;27;20129;-50
2022/03/02 10:03:27;;;;;;;9.30;3.65;;;;;;;28.06;11.42;100185.28;5131883;27;20078;-53
2022/03/02 10:05:53;;;;;;;9.88;4.63;;;;;;;28.30;11.64;100176.69;5131180;27;20027;-48
2022/03/02 10:08:20;;;;;;;4.45;2.88;;;;;;;28.62;11.26;100173.44;5113827;27;20096;-53
2022/03/02 10:10:48;;;;;;;9.10;3.22;;;;;;;28.96;11.26;100168.16;5096645;27;20509;-50
2022/03/02 10:13:16;;;;;;;5.03;3.10;;;;;;;28.92;11.09;100164.97;5092650;28;20054;-48
2022/03/02 10:15:43;;;;;;;6.00;3.28;;;;;;;29.07;10.90;100157.19;5114599;27;20068;-50
2022/03/02 10:18:11;;;;;;;6.20;4.05;;;;;;;29.28;10.97;100162.13;5093230;28;20134;-48
2022/03/02 10:20:43;;;;;;;12.30;8.07;;;;;;;29.35;10.57;100153.34;5119868;27;20053;-46
2022/03/02 10:23:30;;;;;;;12.43;5.15;;;;;;;28.97;10.75;100143.91;5096602;27;20038;-48
2022/03/02 10:26:25;;;;;;;7.53;3.47;;;;;;;28.86;10.89;100144.19;5131624;27;20039;-47
2022/03/02 10:29:09;;;;;;;8.93;3.53;;;;;;;28.92;10.82;100148.91;5084160;27;20156;-47
2022/03/02 10:31:45;;;;;;;6.22;2.92;;;;;;;26.96;11.60;100136.38;5131235;27;20729;-49
2022/03/02 10:34:23;;;;;;;6.97;3.25;;;;;;;26.69;11.54;100122.16;5131641;27;20074;-50
2022/03/02 10:37:08;;;;;;;7.90;3.42;;;;;;;27.06;11.47;100123.00;5113014;27;20075;-47
2022/03/02 10:39:54;;;;;;;14.00;3.80;;;;;;;27.62;11.90;100111.34;5124281;27;20498;-50
2022/03/02 10:42:23;;;;;;;7.95;3.47;;;;;;;27.98;11.59;100113.03;5112402;27;20137;-49
2022/03/02 10:44:58;;;;;;;11.02;3.78;;;;;;;28.25;11.38;100120.16;5131469;27;20038;-48
2022/03/02 10:47:24;;;;;;;7.38;3.05;;;;;;;28.59;11.35;100112.19;5131272;28;20049;-47
2022/03/02 10:49:52;;;;;;;6.40;3.22;;;;;;;28.59;11.34;100106.84;5112708;28;20548;-51
2022/03/02 10:52:21;;;;;;;8.73;3.47;;;;;;;28.68;11.43;100103.25;5131390;28;20468;-50
2022/03/02 10:54:48;;;;;;;8.05;3.78;;;;;;;28.85;11.24;100102.34;5131515;28;20506;-50
2022/03/02 10:57:15;;;;;;;7.30;3.22;;;;;;;28.19;10.99;100108.25;5130979;28;20039;-52
2022/03/02 10:59:44;;;;;;;6.03;3.70;;;;;;;28.00;11.34;100096.84;5112602;28;20042;-51
2022/03/02 11:02:10;;;;;;;7.50;3.15;;;;;;;27.54;11.47;100097.91;5129982;28;20107;-49
2022/03/02 11:04:37;;;;;;;13.10;3.25;;;;;;;27.59;11.66;100093.78;5131010;27;20137;-49
2022/03/02 11:07:04;;;;;;;9.35;3.22;;;;;;;27.96;11.73;100088.28;5112474;28;20043;-50
2022/03/02 11:09:34;;;;;;;9.52;3.80;;;;;;;28.08;11.66;100087.06;5129367;28;20047;-50
2022/03/02 11:12:00;;;;;;;8.90;3.60;;;;;;;28.27;11.59;100096.75;5112099;28;20058;-47
2022/03/02 11:14:27;;;;;;;10.80;3.67;;;;;;;28.31;11.14;100076.75;5112217;28;20543;-52
2022/03/02 11:17:15;;;;;;;6.97;3.33;;;;;;;28.41;11.09;100076.66;5130628;28;20467;-50
2022/03/02 11:19:45;;;;;;;6.05;3.40;;;;;;;28.34;11.18;100062.22;5129520;28;20041;-48
2022/03/02 11:22:16;;;;;;;5.68;3.05;;;;;;;28.44;11.14;100069.13;5112160;28;20054;-48
2022/03/02 11:24:42;;;;;;;10.05;3.92;;;;;;;28.26;11.18;100068.34;5112698;28;20050;-49